Hauptseite
METAR-TAF:

METAR-TAF

Flughäfen :

Flughafen Lugano-Agno

Lugano, Schweiz

Breite: 46-00N, Länge: 008-58E, Höhe: 273 m

Beobachtung

Neuester Wetterbericht von vor 12 Minuten, um 19:20 UTC
Wind 11 kt aus Süd/Südwest, variierte zwischen Süd/Südost und West/Südwest
Temperatur 13°C
Luftfeuchtigkeit 77%
Luftdruck 1023 hPa
Sichtweite: 9000 m
Leicht bewölkt in der Höhe von 2000 ft
Aufgelockert bewölkt in der Höhe von 3000 ft

METAR: LSZA 211920Z 21011KT 160V250 9000 FEW020 SCT030 13/09 Q1023 NOSIG

Zeit: 21:32 (19:32 UTC)

Prognose

Neuester Wetterbericht von vor 5 Stunden und 7 Minuten, um 14:25 UTC
Gültige Prognose vom 21 um 15 UTC bis 21 um 24 UTC
Wind 9 kt aus Süd/Südwest
Sichtweite: 5000 m
Leicht bewölkt in der Höhe von 3000 ft
trockener Dunst
Wahrscheinlichkeit 40%
vom 21 um 19 UTC bis 21 um 24 UTC
Sichtweite: 3000 m
feuchter Dunst

TAF: LSZA 211425Z 2115/2124 21009KT 5000 HZ FEW030 PROB40 2119/2124 3000 BR

Wetterbeobachtungen und Prognosen von mehr als 4000 Flughäfen (METAR und TAF Bericht).

Die verfügbaren Stationen werden durch gelbe und rote Markierungen auf der Karte dargestellt.

Führen Sie die Maus auf sie, um den Namen der Station zu sehen.

Darauf klicken, um die Beobachtung von Wetterbeobachtungen und Prognosen zu sehen.

Um die Karte zu ändern : klicken Sie auf den grünen Tasten mit einem schwarzen Kreuz Zum Vergrößern, auf den grünen Button mit einem Gedankenstrich zu verkleinern, oder auf die grünen Pfeile für benachbarte Karten.


METAR-TAF: